createdAt,value
2018-12-10T00:01:08.634Z,5.80
2018-12-10T00:03:36.083Z,5.70
2018-12-10T00:06:07.011Z,5.80
2018-12-10T00:08:34.461Z,5.70
2018-12-10T00:11:01.886Z,5.60
2018-12-10T00:13:29.351Z,5.70
2018-12-10T00:16:03.396Z,5.70
2018-12-10T00:18:34.164Z,5.50
2018-12-10T00:21:03.207Z,5.50
2018-12-10T00:23:30.660Z,5.60
2018-12-10T00:26:01.009Z,5.60
2018-12-10T00:28:28.455Z,5.60
2018-12-10T00:30:55.896Z,5.60
2018-12-10T00:33:23.342Z,5.60
2018-12-10T00:35:53.832Z,5.60
2018-12-10T00:38:21.311Z,5.60
2018-12-10T00:40:48.725Z,5.50
2018-12-10T00:43:16.214Z,5.50
2018-12-10T00:45:46.663Z,5.50
2018-12-10T00:48:14.121Z,5.60
2018-12-10T00:50:47.593Z,5.50
2018-12-10T00:53:15.122Z,5.50
2018-12-10T00:55:45.472Z,5.50
2018-12-10T00:58:13.047Z,5.40
2018-12-10T01:00:40.462Z,5.30
2018-12-10T01:03:07.947Z,5.30
2018-12-10T01:05:38.401Z,5.30
2018-12-10T01:08:05.852Z,5.30
2018-12-10T01:10:33.284Z,5.30
2018-12-10T01:13:00.747Z,5.40
2018-12-10T01:15:31.557Z,5.50
2018-12-10T01:17:59.014Z,5.50
2018-12-10T01:20:26.446Z,5.30
2018-12-10T01:22:54.116Z,5.20
2018-12-10T01:25:24.460Z,5.30
2018-12-10T01:27:51.934Z,5.20
2018-12-10T01:30:19.391Z,5.30
2018-12-10T01:32:46.844Z,5.10
2018-12-10T01:35:17.188Z,5.10
2018-12-10T01:37:45.544Z,5.10
2018-12-10T01:40:18.716Z,5.10
2018-12-10T01:42:46.165Z,5.00
2018-12-10T01:45:17.150Z,5.00
2018-12-10T01:47:44.623Z,5.00
2018-12-10T01:50:12.048Z,4.80
2018-12-10T01:52:39.563Z,4.90
2018-12-10T01:55:07.721Z,4.90
2018-12-10T01:57:35.158Z,4.80
2018-12-10T02:00:02.951Z,4.70
2018-12-10T02:02:30.386Z,4.60
2018-12-10T02:04:58.106Z,4.60
2018-12-10T02:07:25.544Z,4.60
2018-12-10T02:09:53.003Z,4.60
2018-12-10T02:12:20.521Z,4.60
2018-12-10T02:14:47.957Z,4.60
2018-12-10T02:17:18.994Z,4.60
2018-12-10T02:19:46.514Z,4.60
2018-12-10T02:22:13.935Z,4.50
2018-12-10T02:24:41.394Z,4.50
2018-12-10T02:27:12.006Z,4.40
2018-12-10T02:29:39.441Z,4.40
2018-12-10T02:32:06.866Z,4.50
2018-12-10T02:34:34.308Z,4.40
2018-12-10T02:37:05.134Z,4.40
2018-12-10T02:39:32.566Z,4.40
2018-12-10T02:41:59.986Z,4.40
2018-12-10T02:44:27.422Z,4.40
2018-12-10T02:46:58.362Z,4.30
2018-12-10T02:49:25.791Z,4.20
2018-12-10T02:51:53.230Z,4.10
2018-12-10T02:54:20.659Z,4.00
2018-12-10T02:56:51.352Z,3.90
2018-12-10T02:59:18.788Z,3.80
2018-12-10T03:01:46.240Z,3.70
2018-12-10T03:04:13.738Z,3.60
2018-12-10T03:06:44.375Z,3.60
2018-12-10T03:09:11.806Z,3.70
2018-12-10T03:11:39.302Z,3.60
2018-12-10T03:14:06.730Z,3.60
2018-12-10T03:16:37.783Z,3.60
2018-12-10T03:19:05.249Z,3.60
2018-12-10T03:21:32.676Z,3.50
2018-12-10T03:24:00.098Z,3.50
2018-12-10T03:26:30.961Z,3.60
2018-12-10T03:28:58.486Z,3.50
2018-12-10T03:31:25.935Z,3.50
2018-12-10T03:33:53.384Z,3.50
2018-12-10T03:36:24.246Z,3.50
2018-12-10T03:38:51.678Z,3.60
2018-12-10T03:41:19.094Z,3.60
2018-12-10T03:43:46.527Z,3.60
2018-12-10T03:46:17.131Z,3.60
2018-12-10T03:48:44.557Z,3.60
2018-12-10T03:51:11.967Z,3.50
2018-12-10T03:53:39.417Z,3.50
2018-12-10T03:56:10.387Z,3.50
2018-12-10T03:58:37.819Z,3.50
2018-12-10T04:01:05.243Z,3.40
2018-12-10T04:03:32.665Z,3.30
2018-12-10T04:06:03.507Z,3.30
2018-12-10T04:08:30.950Z,3.30
2018-12-10T04:10:58.439Z,3.30
2018-12-10T04:13:25.864Z,3.30
2018-12-10T04:15:57.206Z,3.20
2018-12-10T04:18:25.704Z,3.20
2018-12-10T04:20:53.253Z,3.20
2018-12-10T04:23:20.779Z,3.20
2018-12-10T04:25:51.417Z,3.30
2018-12-10T04:28:18.846Z,3.30
2018-12-10T04:30:46.268Z,3.40
2018-12-10T04:33:13.707Z,3.40
2018-12-10T04:35:44.147Z,3.40
2018-12-10T04:38:11.643Z,3.40
2018-12-10T04:40:39.063Z,3.40
2018-12-10T04:43:06.495Z,3.40
2018-12-10T04:45:37.039Z,3.40
2018-12-10T04:48:04.512Z,3.40
2018-12-10T04:50:31.927Z,3.40
2018-12-10T04:52:59.359Z,3.40
2018-12-10T04:55:30.295Z,3.40
2018-12-10T04:57:57.809Z,3.50
2018-12-10T05:00:25.265Z,3.40
2018-12-10T05:02:52.692Z,3.40
2018-12-10T05:05:23.026Z,3.40
2018-12-10T05:07:50.463Z,3.40
2018-12-10T05:10:17.883Z,3.40
2018-12-10T05:12:45.345Z,3.40
2018-12-10T05:15:15.898Z,3.40
2018-12-10T05:17:43.330Z,3.50
2018-12-10T05:20:10.823Z,3.50
2018-12-10T05:22:38.249Z,3.50
2018-12-10T05:25:06.529Z,3.50
2018-12-10T05:27:33.971Z,3.40
2018-12-10T05:30:01.393Z,3.40
2018-12-10T05:32:28.813Z,3.50
2018-12-10T05:34:56.242Z,3.50
2018-12-10T05:37:27.518Z,3.50
2018-12-10T05:39:54.942Z,3.40
2018-12-10T05:42:22.372Z,3.30
2018-12-10T05:44:49.794Z,3.30
2018-12-10T05:47:20.487Z,3.20
2018-12-10T05:49:47.943Z,3.30
2018-12-10T05:52:15.357Z,3.20
2018-12-10T05:54:42.798Z,3.20
2018-12-10T05:57:13.627Z,3.20
2018-12-10T05:59:41.065Z,3.20
2018-12-10T06:02:08.487Z,3.10
2018-12-10T06:04:35.959Z,3.10
2018-12-10T06:07:09.512Z,3.10
2018-12-10T06:09:36.935Z,3.10
2018-12-10T06:12:04.433Z,3.10
2018-12-10T06:14:31.867Z,3.20
2018-12-10T06:17:02.833Z,3.20
2018-12-10T06:19:30.284Z,3.20
2018-12-10T06:21:57.737Z,3.40
2018-12-10T06:24:25.171Z,3.40
2018-12-10T06:26:55.815Z,3.30
2018-12-10T06:29:23.253Z,3.30
2018-12-10T06:31:50.788Z,3.20
2018-12-10T06:34:18.214Z,3.30
2018-12-10T06:36:48.770Z,3.20
2018-12-10T06:39:16.217Z,3.10
2018-12-10T06:41:43.685Z,3.10
2018-12-10T06:44:11.146Z,3.10
2018-12-10T06:46:41.579Z,3.10
2018-12-10T06:49:09.013Z,3.30
2018-12-10T06:51:36.440Z,3.20
2018-12-10T06:54:03.971Z,3.30
2018-12-10T06:56:34.830Z,3.30
2018-12-10T06:59:02.390Z,3.20
2018-12-10T07:01:29.874Z,3.30
2018-12-10T07:03:57.315Z,3.10
2018-12-10T07:06:28.495Z,3.10
2018-12-10T07:08:55.929Z,3.00
2018-12-10T07:11:23.438Z,3.00
2018-12-10T07:13:50.886Z,2.90
2018-12-10T07:16:21.321Z,2.90
2018-12-10T07:18:48.798Z,2.80
2018-12-10T07:21:22.431Z,2.80
2018-12-10T07:23:56.090Z,2.90
2018-12-10T07:26:26.827Z,2.90
2018-12-10T07:28:54.278Z,2.90
2018-12-10T07:31:21.707Z,2.90
2018-12-10T07:33:49.135Z,3.00
2018-12-10T07:36:20.168Z,2.90
2018-12-10T07:38:47.616Z,3.00
2018-12-10T07:41:15.046Z,3.10
2018-12-10T07:43:42.485Z,3.20
2018-12-10T07:46:13.358Z,3.30
2018-12-10T07:48:40.819Z,3.30
2018-12-10T07:51:08.278Z,3.40
2018-12-10T07:53:35.724Z,3.60
2018-12-10T07:56:06.279Z,3.50
2018-12-10T07:58:33.726Z,3.50
2018-12-10T08:01:01.148Z,3.60
2018-12-10T08:03:28.578Z,3.80
2018-12-10T08:05:59.043Z,3.80
2018-12-10T08:08:26.558Z,3.80
2018-12-10T08:10:53.998Z,3.70
2018-12-10T08:13:21.415Z,3.80
2018-12-10T08:15:52.169Z,3.90
2018-12-10T08:18:19.674Z,4.00
2018-12-10T08:20:47.132Z,4.00
2018-12-10T08:23:14.572Z,3.80
2018-12-10T08:25:44.960Z,3.70
2018-12-10T08:28:12.518Z,3.70
2018-12-10T08:30:39.958Z,3.60
2018-12-10T08:33:07.384Z,3.70
2018-12-10T08:38:07.374Z,3.80
2018-12-10T08:40:34.867Z,4.00
2018-12-10T08:41:00.650Z,3.80
2018-12-10T08:43:02.279Z,4.10
2018-12-10T08:45:33.150Z,4.50
2018-12-10T08:48:00.610Z,4.90
2018-12-10T08:50:28.041Z,5.00
2018-12-10T08:52:55.470Z,5.30
2018-12-10T08:55:26.183Z,5.00
2018-12-10T08:57:53.616Z,4.80
2018-12-10T09:00:21.083Z,4.70
2018-12-10T09:02:48.539Z,5.30
2018-12-10T09:05:19.236Z,5.40
2018-12-10T09:07:46.751Z,5.40
2018-12-10T09:10:14.187Z,5.50
2018-12-10T09:12:46.973Z,5.30
2018-12-10T09:15:14.178Z,5.40
2018-12-10T09:17:41.631Z,5.50
2018-12-10T09:20:09.143Z,6.30
2018-12-10T09:22:36.583Z,6.20
2018-12-10T09:25:05.087Z,6.30
2018-12-10T09:27:32.534Z,6.40
2018-12-10T09:29:59.978Z,6.90
2018-12-10T09:32:27.439Z,6.30
2018-12-10T09:34:54.866Z,6.80
2018-12-10T09:37:25.243Z,6.90
2018-12-10T09:39:52.741Z,6.80
2018-12-10T09:42:20.166Z,7.00
2018-12-10T09:44:47.602Z,7.40
2018-12-10T09:47:18.182Z,6.30
2018-12-10T09:49:45.657Z,6.90
2018-12-10T09:52:13.115Z,7.30
2018-12-10T09:54:40.566Z,7.30
2018-12-10T09:57:11.527Z,6.90
2018-12-10T09:59:38.961Z,6.50
2018-12-10T10:02:12.278Z,7.10
2018-12-10T10:04:35.880Z,6.50
2018-12-10T10:07:06.898Z,6.00
2018-12-10T10:09:34.327Z,6.10
2018-12-10T10:12:01.769Z,6.20
2018-12-10T10:14:29.356Z,6.90
2018-12-10T10:17:00.035Z,6.50
2018-12-10T10:19:27.503Z,6.40
2018-12-10T10:21:54.997Z,6.50
2018-12-10T10:24:22.441Z,6.70
2018-12-10T10:26:53.759Z,6.80
2018-12-10T10:29:21.197Z,7.00
2018-12-10T10:31:48.609Z,7.40
2018-12-10T10:34:16.039Z,7.10
2018-12-10T10:36:46.612Z,6.90
2018-12-10T10:39:14.083Z,6.80
2018-12-10T10:41:41.521Z,6.30
2018-12-10T10:44:08.943Z,6.50
2018-12-10T10:46:40.195Z,6.80
2018-12-10T10:49:07.615Z,7.00
2018-12-10T10:51:35.084Z,6.80
2018-12-10T10:54:02.508Z,6.90
2018-12-10T10:56:33.204Z,7.60
2018-12-10T10:59:00.640Z,7.30
2018-12-10T11:01:33.710Z,7.00
2018-12-10T11:04:01.117Z,7.40
2018-12-10T11:06:32.267Z,7.70
2018-12-10T11:08:59.717Z,7.70
2018-12-10T11:11:27.154Z,7.00
2018-12-10T11:13:54.574Z,6.70
2018-12-10T11:16:25.330Z,7.20
2018-12-10T11:18:52.978Z,6.60
2018-12-10T11:21:20.413Z,6.70
2018-12-10T11:23:47.978Z,6.70
2018-12-10T11:26:18.510Z,6.70
2018-12-10T11:28:45.931Z,6.80
2018-12-10T11:31:17.315Z,7.40
2018-12-10T11:33:42.801Z,7.10
2018-12-10T11:36:13.487Z,7.40
2018-12-10T11:38:40.931Z,7.20
2018-12-10T11:41:08.405Z,7.10
2018-12-10T11:43:35.834Z,6.70
2018-12-10T11:46:06.746Z,6.80
2018-12-10T11:48:34.172Z,6.70
2018-12-10T11:51:01.608Z,6.80
2018-12-10T11:53:29.046Z,7.00
2018-12-10T11:55:59.602Z,7.00
2018-12-10T11:58:27.105Z,6.90
2018-12-10T12:00:54.586Z,6.70
2018-12-10T12:03:22.093Z,6.90
2018-12-10T12:05:52.555Z,7.30
2018-12-10T12:08:19.978Z,7.50
2018-12-10T12:10:47.424Z,7.80
2018-12-10T12:13:14.881Z,8.00
2018-12-10T12:15:45.947Z,8.00
2018-12-10T12:18:13.411Z,8.30
2018-12-10T12:20:40.834Z,8.30
2018-12-10T12:23:08.285Z,8.70
2018-12-10T12:25:39.170Z,8.10
2018-12-10T12:28:06.631Z,8.30
2018-12-10T12:30:34.101Z,8.90
2018-12-10T12:33:01.646Z,8.10
2018-12-10T12:35:32.944Z,8.10
2018-12-10T12:38:00.431Z,8.10
2018-12-10T12:40:27.869Z,8.40
2018-12-10T12:42:55.312Z,8.50
2018-12-10T12:45:26.174Z,8.20
2018-12-10T12:47:53.638Z,8.30
2018-12-10T12:50:21.186Z,7.90
2018-12-10T12:52:48.615Z,8.30
2018-12-10T12:55:19.187Z,8.00
2018-12-10T12:57:46.614Z,7.30
2018-12-10T13:00:14.099Z,7.40
2018-12-10T13:02:41.523Z,7.30
2018-12-10T13:05:12.337Z,7.50
2018-12-10T13:07:39.761Z,7.70
2018-12-10T13:10:07.283Z,7.90
2018-12-10T13:12:34.775Z,8.00
2018-12-10T13:15:03.215Z,8.10
2018-12-10T13:17:30.645Z,7.70
2018-12-10T13:19:58.145Z,7.80
2018-12-10T13:22:25.613Z,8.00
2018-12-10T13:24:53.046Z,7.40
2018-12-10T13:27:23.983Z,6.90
2018-12-10T13:29:51.394Z,6.60
2018-12-10T13:32:18.844Z,6.50
2018-12-10T13:34:46.285Z,6.20
2018-12-10T13:37:17.124Z,6.20
2018-12-10T13:39:44.646Z,6.30
2018-12-10T13:42:12.079Z,6.30
2018-12-10T13:44:39.486Z,6.40
2018-12-10T13:47:10.062Z,6.40
2018-12-10T13:49:37.474Z,6.10
2018-12-10T13:52:09.076Z,5.90
2018-12-10T13:54:34.342Z,5.70
2018-12-10T13:57:05.052Z,5.70
2018-12-10T13:59:32.491Z,5.60
2018-12-10T14:01:59.918Z,5.50
2018-12-10T14:04:29.272Z,5.50
2018-12-10T14:07:00.350Z,5.60
2018-12-10T14:09:27.774Z,5.70
2018-12-10T14:11:55.207Z,5.90
2018-12-10T14:14:22.640Z,6.00
2018-12-10T14:16:53.435Z,6.20
2018-12-10T14:19:20.900Z,6.30
2018-12-10T14:21:48.485Z,6.30
2018-12-10T14:24:15.966Z,6.30
2018-12-10T14:26:46.338Z,6.50
2018-12-10T14:29:13.754Z,6.30
2018-12-10T14:31:41.225Z,6.50
2018-12-10T14:34:14.329Z,6.50
2018-12-10T14:36:45.401Z,6.60
2018-12-10T14:39:12.997Z,6.40
2018-12-10T14:41:40.440Z,6.40
2018-12-10T14:44:07.864Z,6.50
2018-12-10T14:46:38.359Z,6.40
2018-12-10T14:49:05.863Z,6.20
2018-12-10T14:51:33.357Z,6.20
2018-12-10T14:54:00.779Z,6.20
2018-12-10T14:56:32.046Z,6.30
2018-12-10T14:58:59.487Z,6.50
2018-12-10T15:01:26.983Z,6.30
2018-12-10T15:03:54.414Z,6.00
2018-12-10T15:06:24.782Z,5.90
2018-12-10T15:08:52.223Z,6.10
2018-12-10T15:11:19.675Z,6.20
2018-12-10T15:13:47.135Z,6.20
2018-12-10T15:16:17.709Z,6.10
2018-12-10T15:18:45.136Z,6.00
2018-12-10T15:21:12.564Z,5.90
2018-12-10T15:23:40.047Z,5.80
2018-12-10T15:26:10.874Z,5.90
2018-12-10T15:28:38.304Z,5.70
2018-12-10T15:31:05.814Z,5.80
2018-12-10T15:33:33.240Z,5.90
2018-12-10T15:36:03.930Z,6.00
2018-12-10T15:38:31.378Z,6.10
2018-12-10T15:40:58.817Z,6.20
2018-12-10T15:43:26.234Z,6.30
2018-12-10T15:45:56.598Z,6.30
2018-12-10T15:48:24.021Z,6.30
2018-12-10T15:50:51.491Z,6.30
2018-12-10T15:53:18.907Z,5.90
2018-12-10T15:55:49.837Z,6.00
2018-12-10T15:58:17.290Z,6.20
2018-12-10T16:00:44.725Z,6.00
2018-12-10T16:03:12.207Z,6.00
2018-12-10T16:05:43.159Z,6.00
2018-12-10T16:08:10.680Z,6.20
2018-12-10T16:10:38.116Z,6.00
2018-12-10T16:13:05.575Z,6.00
2018-12-10T16:15:36.214Z,6.00
2018-12-10T16:18:03.715Z,6.10
2018-12-10T16:20:31.129Z,6.10
2018-12-10T16:22:58.577Z,5.90
2018-12-10T16:25:29.218Z,5.80
2018-12-10T16:27:56.786Z,5.70
2018-12-10T16:30:24.263Z,5.40
2018-12-10T16:32:51.855Z,5.40
2018-12-10T16:35:23.103Z,5.40
2018-12-10T16:37:50.534Z,5.40
2018-12-10T16:40:17.986Z,5.60
2018-12-10T16:42:45.427Z,5.40
2018-12-10T16:45:16.303Z,5.40
2018-12-10T16:47:43.763Z,5.20
2018-12-10T16:50:11.178Z,5.20
2018-12-10T16:52:38.650Z,5.20
2018-12-10T16:55:06.331Z,5.10
2018-12-10T16:57:33.784Z,5.10
2018-12-10T17:00:01.203Z,5.10
2018-12-10T17:02:28.693Z,5.10
2018-12-10T17:04:56.120Z,5.20
2018-12-10T17:07:27.185Z,5.10
2018-12-10T17:09:54.681Z,5.20
2018-12-10T17:12:22.139Z,5.20
2018-12-10T17:14:49.553Z,5.10
2018-12-10T17:17:20.266Z,5.10
2018-12-10T17:19:47.698Z,5.10
2018-12-10T17:22:15.142Z,5.10
2018-12-10T17:24:42.596Z,5.10
2018-12-10T17:27:13.315Z,5.10
2018-12-10T17:29:40.726Z,5.10
2018-12-10T17:32:08.190Z,5.30
2018-12-10T17:34:35.606Z,5.40
2018-12-10T17:37:06.085Z,5.40
2018-12-10T17:39:33.537Z,5.50
2018-12-10T17:42:01.042Z,5.50
2018-12-10T17:44:28.481Z,5.30
2018-12-10T17:47:02.538Z,5.20
2018-12-10T17:49:29.989Z,5.30
2018-12-10T17:51:57.445Z,5.20
2018-12-10T17:54:24.882Z,5.20
2018-12-10T17:56:56.035Z,5.20
2018-12-10T17:59:23.486Z,5.00
2018-12-10T18:01:50.941Z,4.80
2018-12-10T18:04:18.352Z,4.70
2018-12-10T18:06:49.722Z,4.40
2018-12-10T18:09:17.219Z,4.30
2018-12-10T18:11:44.705Z,4.20
2018-12-10T18:14:12.167Z,3.90
2018-12-10T18:16:43.152Z,3.70
2018-12-10T18:19:10.580Z,3.70
2018-12-10T18:21:38.038Z,3.70
2018-12-10T18:24:05.465Z,3.60
2018-12-10T18:26:36.072Z,3.60
2018-12-10T18:29:03.538Z,3.60
2018-12-10T18:31:31.005Z,3.60
2018-12-10T18:33:58.764Z,3.70
2018-12-10T18:36:29.859Z,3.80
2018-12-10T18:38:57.346Z,3.90
2018-12-10T18:41:24.786Z,4.60
2018-12-10T18:43:52.282Z,4.30
2018-12-10T18:46:22.899Z,4.50
2018-12-10T18:48:50.374Z,4.00
2018-12-10T18:51:17.803Z,4.20
2018-12-10T18:53:45.373Z,4.10
2018-12-10T18:56:16.135Z,4.40
2018-12-10T18:58:43.581Z,4.10
2018-12-10T19:01:11.024Z,4.00
2018-12-10T19:03:38.482Z,4.30
2018-12-10T19:06:09.345Z,4.50
2018-12-10T19:08:36.817Z,4.40
2018-12-10T19:11:04.380Z,4.80
2018-12-10T19:13:31.880Z,5.80
2018-12-10T19:16:03.227Z,5.20
2018-12-10T19:18:30.685Z,4.70
2018-12-10T19:20:58.242Z,4.50
2018-12-10T19:23:25.703Z,4.50
2018-12-10T19:25:56.225Z,4.40
2018-12-10T19:28:23.663Z,4.20
2018-12-10T19:30:51.125Z,4.00
2018-12-10T19:33:18.577Z,4.00
2018-12-10T19:35:49.390Z,3.70
2018-12-10T19:38:16.810Z,3.70
2018-12-10T19:40:44.265Z,3.50
2018-12-10T19:43:14.518Z,3.50
2018-12-10T19:45:48.995Z,3.50
2018-12-10T19:48:16.408Z,3.60
2018-12-10T19:50:44.723Z,3.60
2018-12-10T19:53:12.434Z,4.00
2018-12-10T19:55:43.311Z,4.00
2018-12-10T19:58:10.871Z,3.90
2018-12-10T20:00:38.371Z,3.70
2018-12-10T20:03:05.821Z,3.70
2018-12-10T20:05:41.810Z,3.60
2018-12-10T20:08:09.315Z,3.50
2018-12-10T20:10:36.734Z,3.70
2018-12-10T20:13:04.534Z,3.50
2018-12-10T20:15:35.318Z,3.40
2018-12-10T20:18:02.762Z,3.80
2018-12-10T20:20:30.193Z,4.20
2018-12-10T20:22:57.642Z,3.80
2018-12-10T20:25:28.310Z,3.70
2018-12-10T20:27:55.774Z,3.70
2018-12-10T20:30:24.135Z,3.80
2018-12-10T20:32:52.301Z,3.70
2018-12-10T20:35:24.111Z,3.10
2018-12-10T20:37:52.016Z,3.10
2018-12-10T20:40:19.549Z,3.20
2018-12-10T20:42:47.007Z,3.10
2018-12-10T20:45:18.167Z,3.30
2018-12-10T20:50:24.799Z,3.40
2018-12-10T20:52:52.451Z,4.00
2018-12-10T20:55:24.039Z,5.20
2018-12-10T20:57:52.503Z,5.00
2018-12-10T21:00:24.235Z,4.70
2018-12-10T21:02:51.736Z,4.20
2018-12-10T21:05:25.119Z,3.60
2018-12-10T21:07:53.103Z,3.30
2018-12-10T21:10:21.231Z,3.20
2018-12-10T21:12:48.705Z,3.20
2018-12-10T21:15:19.191Z,3.20
2018-12-10T21:17:47.594Z,3.00
2018-12-10T21:20:15.029Z,2.90
2018-12-10T21:22:42.470Z,2.80
2018-12-10T21:25:13.233Z,2.80
2018-12-10T21:27:40.682Z,2.80
2018-12-10T21:30:08.242Z,2.80
2018-12-10T21:32:35.770Z,2.90
2018-12-10T21:35:05.914Z,2.90
2018-12-10T21:37:33.363Z,3.00
2018-12-10T21:40:00.793Z,2.90
2018-12-10T21:42:28.258Z,3.00
2018-12-10T21:44:55.681Z,3.20
2018-12-10T21:47:27.291Z,3.40
2018-12-10T21:49:55.723Z,3.50
2018-12-10T21:52:23.199Z,3.50
2018-12-10T21:54:51.527Z,3.60
2018-12-10T21:57:22.018Z,3.40
2018-12-10T21:59:50.382Z,3.10
2018-12-10T22:02:18.014Z,3.10
2018-12-10T22:04:46.074Z,3.00
2018-12-10T22:07:17.869Z,3.10
2018-12-10T22:09:45.378Z,3.30
2018-12-10T22:12:12.822Z,3.50
2018-12-10T22:14:45.032Z,3.50
2018-12-10T22:17:16.074Z,3.50
2018-12-10T22:19:45.271Z,3.50
2018-12-10T22:22:12.694Z,3.50
2018-12-10T22:24:40.131Z,3.40
2018-12-10T22:27:10.992Z,3.10
2018-12-10T22:29:38.457Z,2.90
2018-12-10T22:32:05.865Z,2.80
2018-12-10T22:34:33.340Z,2.70
2018-12-10T22:37:04.902Z,2.60
2018-12-10T22:39:33.568Z,2.50
2018-12-10T22:42:00.991Z,2.40
2018-12-10T22:44:28.439Z,2.30
2018-12-10T22:46:59.402Z,2.30
2018-12-10T22:49:27.451Z,2.40
2018-12-10T22:51:55.695Z,2.40
2018-12-10T22:54:23.130Z,2.30
2018-12-10T22:56:53.495Z,2.30
2018-12-10T22:59:20.943Z,2.30
2018-12-10T23:01:49.100Z,2.40
2018-12-10T23:04:16.542Z,2.40
2018-12-10T23:06:47.209Z,2.40
2018-12-10T23:09:14.648Z,2.40
2018-12-10T23:11:42.061Z,2.40
2018-12-10T23:14:09.510Z,2.40
2018-12-10T23:16:40.267Z,2.50
2018-12-10T23:19:07.719Z,2.60
2018-12-10T23:21:35.138Z,2.60
2018-12-10T23:24:02.690Z,2.60
2018-12-10T23:26:33.159Z,2.50
2018-12-10T23:29:00.730Z,2.50
2018-12-10T23:31:28.178Z,2.50
2018-12-10T23:33:55.622Z,2.50
2018-12-10T23:36:26.054Z,2.40
2018-12-10T23:38:53.630Z,2.40
2018-12-10T23:41:21.059Z,2.40
2018-12-10T23:43:48.511Z,2.40
2018-12-10T23:46:19.090Z,2.30
2018-12-10T23:48:46.605Z,2.20
2018-12-10T23:51:14.033Z,2.10
2018-12-10T23:53:41.511Z,2.00
2018-12-10T23:56:12.138Z,2.00
2018-12-10T23:58:39.582Z,2.00
